Time;durP1;ratioP1;P1;durP2;ratioP2;P2;SDS_P1;SDS_P2;PMS_P1;PMS_P2;Temp;Humidity;BMP_temperature;BMP_pressure;BME280_temperature;BME280_humidity;BME280_pressure;Samples;Min_cycle;Max_cycle;Signal;HPM_P1;HPM_P2
2024/01/31 00:00:28;;;;;;;;;;;;;;;-0.53;100.00;102028.98;109187;1251;59010;-55
2024/01/31 00:02:56;;;;;;;;;;;;;;;-0.51;100.00;102028.89;109179;1253;59822;-58
2024/01/31 00:05:23;;;;;;;;;;;;;;;-0.49;100.00;102023.52;109202;1252;75480;-58
2024/01/31 00:07:51;;;;;;;;;;;;;;;-0.49;100.00;102024.90;109251;1252;65635;-62
2024/01/31 00:10:19;;;;;;;;;;;;;;;-0.50;100.00;102024.05;109198;1253;72744;-60
2024/01/31 00:12:46;;;;;;;;;;;;;;;-0.51;100.00;102023.27;109235;1253;59034;-58
2024/01/31 00:15:16;;;;;;;;;;;;;;;-0.51;100.00;102022.77;109218;1253;59866;-59
2024/01/31 00:17:44;;;;;;;;;;;;;;;-0.52;100.00;102019.39;109227;1253;74680;-55
2024/01/31 00:20:11;;;;;;;;;;;;;;;-0.54;100.00;102016.52;109208;1251;66540;-55
2024/01/31 00:22:39;;;;;;;;;;;;;;;-0.54;100.00;102018.95;109217;1253;71320;-57
2024/01/31 00:25:07;;;;;;;;;;;;;;;-0.59;100.00;102012.16;109154;1253;58939;-65
2024/01/31 00:27:34;;;;;;;;;;;;;;;-0.61;100.00;102008.50;109367;1253;59912;-58
2024/01/31 00:30:03;;;;;;;;;;;;;;;-0.64;100.00;102009.48;109264;1253;73226;-56
2024/01/31 00:32:31;;;;;;;;;;;;;;;-0.67;100.00;102008.27;109248;1253;65368;-57
2024/01/31 00:34:58;;;;;;;;;;;;;;;-0.72;100.00;102011.88;109200;1253;70366;-66
2024/01/31 00:37:26;;;;;;;;;;;;;;;-0.76;100.00;102010.17;109212;1253;59047;-56
2024/01/31 00:39:54;;;;;;;;;;;;;;;-0.81;100.00;102010.36;109159;1253;58978;-57
2024/01/31 00:42:21;;;;;;;;;;;;;;;-0.82;100.00;102012.50;109137;1253;74715;-57
2024/01/31 00:44:49;;;;;;;;;;;;;;;-0.85;100.00;102008.54;109199;1253;65191;-58
2024/01/31 00:47:17;;;;;;;;;;;;;;;-0.87;100.00;102007.75;109139;1253;72784;-58
2024/01/31 00:49:44;;;;;;;;;;;;;;;-0.88;100.00;102008.48;109195;1253;59311;-60
2024/01/31 00:52:12;;;;;;;;;;;;;;;-0.89;100.00;102009.87;109167;1256;59080;-58
2024/01/31 00:54:40;;;;;;;;;;;;;;;-0.89;100.00;102010.08;109194;1253;74759;-56
2024/01/31 00:57:07;;;;;;;;;;;;;;;-0.88;100.00;102006.45;109292;1253;67503;-59
2024/01/31 00:59:35;;;;;;;;;;;;;;;-0.83;100.00;102006.91;109148;1253;71807;-57
2024/01/31 01:02:02;;;;;;;;;;;;;;;-0.79;100.00;102007.59;109162;1253;60947;-57
2024/01/31 01:04:30;;;;;;;;;;;;;;;-0.76;100.00;102011.88;109186;1253;60015;-57
2024/01/31 01:06:58;;;;;;;;;;;;;;;-0.72;100.00;102011.05;109230;1253;74768;-57
2024/01/31 01:09:25;;;;;;;;;;;;;;;-0.68;100.00;102010.86;109187;1253;65621;-58
2024/01/31 01:11:53;;;;;;;;;;;;;;;-0.64;100.00;102011.88;109164;1253;73157;-60
2024/01/31 01:14:20;;;;;;;;;;;;;;;-0.61;100.00;102009.02;109301;1253;61000;-62
2024/01/31 01:16:48;;;;;;;;;;;;;;;-0.59;100.00;102005.88;109192;1253;59534;-59
2024/01/31 01:19:15;;;;;;;;;;;;;;;-0.60;100.00;102006.05;109218;1253;73778;-57
2024/01/31 01:21:43;;;;;;;;;;;;;;;-0.62;100.00;102002.74;109120;1253;66967;-58
2024/01/31 01:24:10;;;;;;;;;;;;;;;-0.66;100.00;101998.46;109149;1253;73180;-60
2024/01/31 01:26:41;;;;;;;;;;;;;;;-0.71;100.00;101996.81;109184;1253;60953;-59
2024/01/31 01:29:08;;;;;;;;;;;;;;;-0.77;100.00;101996.73;109229;1253;59142;-57
2024/01/31 01:31:36;;;;;;;;;;;;;;;-0.83;100.00;101996.29;109101;1253;73451;-57
2024/01/31 01:34:04;;;;;;;;;;;;;;;-0.90;100.00;101996.77;109201;1253;66943;-57
2024/01/31 01:36:31;;;;;;;;;;;;;;;-0.98;100.00;101991.86;109153;1253;72644;-57
2024/01/31 01:38:59;;;;;;;;;;;;;;;-1.07;100.00;101983.86;109162;1253;59690;-57
2024/01/31 01:41:26;;;;;;;;;;;;;;;-1.14;100.00;101981.59;109181;1253;58894;-62
2024/01/31 01:43:54;;;;;;;;;;;;;;;-1.20;100.00;101979.83;109145;1253;74741;-56
2024/01/31 01:46:21;;;;;;;;;;;;;;;-1.27;100.00;101979.25;109172;1253;65652;-56
2024/01/31 01:48:49;;;;;;;;;;;;;;;-1.33;100.00;101978.49;109171;1253;72730;-57
2024/01/31 01:51:17;;;;;;;;;;;;;;;-1.38;100.00;101973.40;109171;1253;59037;-56
2024/01/31 01:53:45;;;;;;;;;;;;;;;-1.41;100.00;101976.77;109157;1253;59380;-64
2024/01/31 01:56:18;;;;;;;;;;;;;;;-1.47;100.00;101970.19;109166;1253;75251;-56
2024/01/31 01:58:47;;;;;;;;;;;;;;;-1.47;100.00;101970.71;109143;1253;66958;-56
2024/01/31 02:01:14;;;;;;;;;;;;;;;-1.46;100.00;101968.80;109154;1253;72806;-55
2024/01/31 02:03:43;;;;;;;;;;;;;;;-1.52;100.00;101963.73;109168;1252;59342;-56
2024/01/31 02:06:11;;;;;;;;;;;;;;;-1.54;100.00;101967.07;109181;1253;59456;-55
2024/01/31 02:08:38;;;;;;;;;;;;;;;-1.56;100.00;101964.42;109189;1253;72850;-55
2024/01/31 02:11:07;;;;;;;;;;;;;;;-1.57;100.00;101961.41;109216;1253;65885;-55
2024/01/31 02:13:34;;;;;;;;;;;;;;;-1.58;100.00;101967.06;109179;1253;71762;-54
2024/01/31 02:16:02;;;;;;;;;;;;;;;-1.58;100.00;101972.00;109126;1253;59317;-60
2024/01/31 02:18:29;;;;;;;;;;;;;;;-1.60;100.00;101966.27;109158;1253;59833;-55
2024/01/31 02:20:57;;;;;;;;;;;;;;;-1.60;100.00;101964.59;109167;1253;72815;-55
2024/01/31 02:23:25;;;;;;;;;;;;;;;-1.59;100.00;101963.35;109232;1252;66933;-55
2024/01/31 02:25:52;;;;;;;;;;;;;;;-1.61;100.00;101965.84;109164;1253;72800;-54
2024/01/31 02:28:20;;;;;;;;;;;;;;;-1.62;100.00;101962.80;109142;1253;59722;-61
2024/01/31 02:30:47;;;;;;;;;;;;;;;-1.60;100.00;101969.21;109187;1253;60120;-54
2024/01/31 02:33:15;;;;;;;;;;;;;;;-1.61;100.00;101969.05;109281;1253;74764;-56
2024/01/31 02:35:42;;;;;;;;;;;;;;;-1.60;100.00;101965.13;109216;1253;65732;-55
2024/01/31 02:38:10;;;;;;;;;;;;;;;-1.58;100.00;101961.10;109184;1253;72707;-55
2024/01/31 02:40:37;;;;;;;;;;;;;;;-1.57;100.00;101955.79;109128;1256;59745;-58
2024/01/31 02:43:05;;;;;;;;;;;;;;;-1.54;100.00;101958.38;109257;1253;59840;-55
2024/01/31 02:45:33;;;;;;;;;;;;;;;-1.52;100.00;101957.42;109207;1253;75250;-56
2024/01/31 02:48:01;;;;;;;;;;;;;;;-1.50;100.00;101951.92;109203;1253;67222;-55
2024/01/31 02:50:31;;;;;;;;;;;;;;;-1.49;100.00;101950.00;109109;1255;72461;-63
2024/01/31 02:52:59;;;;;;;;;;;;;;;-1.50;100.00;101947.48;109206;1253;59319;-56
2024/01/31 02:55:27;;;;;;;;;;;;;;;-1.54;100.00;101947.64;109324;1253;59909;-55
2024/01/31 02:57:54;;;;;;;;;;;;;;;-1.62;100.00;101944.38;109178;1254;74767;-55
2024/01/31 03:00:22;;;;;;;;;;;;;;;-1.72;100.00;101940.69;109194;1253;66424;-56
2024/01/31 03:02:49;;;;;;;;;;;;;;;-1.79;100.00;101939.47;109195;1253;73310;-55
2024/01/31 03:05:17;;;;;;;;;;;;;;;-1.88;100.00;101936.08;109156;1253;59713;-56
2024/01/31 03:07:44;;;;;;;;;;;;;;;-1.95;100.00;101936.35;109209;1253;59000;-56
2024/01/31 03:10:12;;;;;;;;;;;;;;;-2.01;100.00;101934.71;109202;1253;74933;-57
2024/01/31 03:12:40;;;;;;;;;;;;;;;-2.03;100.00;101931.89;109158;1253;67426;-55
2024/01/31 03:15:07;;;;;;;;;;;;;;;-2.03;100.00;101929.00;109309;1257;72378;-56
2024/01/31 03:17:35;;;;;;;;;;;;;;;-2.02;100.00;101931.51;109128;1253;59001;-56
2024/01/31 03:20:05;;;;;;;;;;;;;;;-2.02;100.00;101938.83;109198;1253;59876;-55
2024/01/31 03:22:36;;;;;;;;;;;;;;;-2.01;100.00;101944.27;109259;1253;73114;-56
2024/01/31 03:25:04;;;;;;;;;;;;;;;-1.97;100.00;101943.95;109211;1253;66527;-56
2024/01/31 03:27:32;;;;;;;;;;;;;;;-1.93;100.00;101939.00;109140;1253;71357;-55
2024/01/31 03:30:02;;;;;;;;;;;;;;;-1.89;100.00;101936.81;109146;1253;60212;-63
2024/01/31 03:32:36;;;;;;;;;;;;;;;-1.86;100.00;101940.92;109141;1253;58862;-55
2024/01/31 03:35:04;;;;;;;;;;;;;;;-1.82;100.00;101940.10;109139;1253;74749;-55
2024/01/31 03:37:32;;;;;;;;;;;;;;;-1.80;100.00;101937.27;109162;1253;66257;-56
2024/01/31 03:39:59;;;;;;;;;;;;;;;-1.78;100.00;101935.65;109313;1254;72721;-62
2024/01/31 03:42:27;;;;;;;;;;;;;;;-1.76;100.00;101934.56;109213;1256;60974;-55
2024/01/31 03:44:56;;;;;;;;;;;;;;;-1.76;100.00;101935.59;109193;1252;59034;-55
2024/01/31 03:47:24;;;;;;;;;;;;;;;-1.78;100.00;101933.77;109229;1254;73652;-55
2024/01/31 03:49:52;;;;;;;;;;;;;;;-1.78;100.00;101934.14;109198;1253;66057;-58
2024/01/31 03:52:19;;;;;;;;;;;;;;;-1.79;100.00;101934.19;109213;1253;72748;-55
2024/01/31 03:54:47;;;;;;;;;;;;;;;-1.81;100.00;101936.98;109238;1253;60852;-55
2024/01/31 03:57:14;;;;;;;;;;;;;;;-1.85;100.00;101940.71;109204;1253;58907;-57
2024/01/31 03:59:42;;;;;;;;;;;;;;;-1.82;100.00;101938.55;109160;1253;74794;-55
2024/01/31 04:02:10;;;;;;;;;;;;;;;-1.81;100.00;101944.98;109168;1253;67485;-55
2024/01/31 04:04:37;;;;;;;;;;;;;;;-1.81;100.00;101941.77;109205;1254;72618;-55
2024/01/31 04:07:05;;;;;;;;;;;;;;;-1.82;100.00;101943.86;109229;1253;59484;-57
2024/01/31 04:09:32;;;;;;;;;;;;;;;-1.86;100.00;101945.19;109245;1259;59914;-55
2024/01/31 04:12:00;;;;;;;;;;;;;;;-1.87;100.00;101945.58;109205;1253;73441;-55
2024/01/31 04:14:27;;;;;;;;;;;;;;;-1.89;100.00;101948.72;109221;1253;66790;-55
2024/01/31 04:16:55;;;;;;;;;;;;;;;-1.90;100.00;101950.98;109238;1253;72872;-55
2024/01/31 04:19:22;;;;;;;;;;;;;;;-1.90;100.00;101955.40;109205;1253;60927;-56
2024/01/31 04:21:50;;;;;;;;;;;;;;;-1.91;100.00;101955.43;109255;1253;59914;-55
2024/01/31 04:24:17;;;;;;;;;;;;;;;-1.92;100.00;101959.91;109199;1253;75598;-55
2024/01/31 04:26:44;;;;;;;;;;;;;;;-1.93;100.00;101957.91;109227;1252;68232;-56
2024/01/31 04:29:12;;;;;;;;;;;;;;;-1.92;100.00;101952.44;109234;1254;72532;-55
2024/01/31 04:31:39;;;;;;;;;;;;;;;-1.91;100.00;101957.14;109198;1254;59570;-55
2024/01/31 04:34:08;;;;;;;;;;;;;;;-1.92;100.00;101956.50;109156;1253;59805;-62
2024/01/31 04:36:36;;;;;;;;;;;;;;;-1.92;100.00;101957.21;109229;1255;74732;-55
2024/01/31 04:39:03;;;;;;;;;;;;;;;-1.94;100.00;101960.88;109238;1254;66951;-56
2024/01/31 04:41:31;;;;;;;;;;;;;;;-1.95;100.00;101963.27;109230;1254;72727;-55
2024/01/31 04:43:58;;;;;;;;;;;;;;;-1.96;100.00;101957.36;109305;1252;58979;-54
2024/01/31 04:46:26;;;;;;;;;;;;;;;-1.97;100.00;101961.48;109202;1253;59963;-56
2024/01/31 04:48:54;;;;;;;;;;;;;;;-1.95;100.00;101962.92;109245;1254;73424;-55
2024/01/31 04:51:21;;;;;;;;;;;;;;;-1.94;100.00;101958.63;109270;1258;65727;-56
2024/01/31 04:53:49;;;;;;;;;;;;;;;-1.95;100.00;101960.91;109213;1254;71229;-55
2024/01/31 04:56:18;;;;;;;;;;;;;;;-1.98;100.00;101962.88;109247;1254;59325;-56
2024/01/31 04:58:45;;;;;;;;;;;;;;;-2.00;100.00;101962.79;109229;1254;59176;-57
2024/01/31 05:01:13;;;;;;;;;;;;;;;-1.99;100.00;101961.88;109201;1254;74708;-57
2024/01/31 05:03:41;;;;;;;;;;;;;;;-1.99;100.00;101962.39;109342;1253;66183;-56
2024/01/31 05:06:08;;;;;;;;;;;;;;;-1.99;100.00;101961.39;109344;1254;72820;-56
2024/01/31 05:08:36;;;;;;;;;;;;;;;-2.00;100.00;101961.42;109393;1253;59561;-55
2024/01/31 05:11:03;;;;;;;;;;;;;;;-1.99;100.00;101957.83;109474;1256;60043;-57
2024/01/31 05:13:31;;;;;;;;;;;;;;;-1.96;100.00;101957.70;109354;1254;76880;-56
2024/01/31 05:15:58;;;;;;;;;;;;;;;-1.93;100.00;101961.34;109368;1251;66978;-56
2024/01/31 05:18:26;;;;;;;;;;;;;;;-1.91;100.00;101959.02;109317;1254;72754;-61
2024/01/31 05:20:54;;;;;;;;;;;;;;;-1.88;100.00;101957.73;109370;1253;60861;-57
2024/01/31 05:23:21;;;;;;;;;;;;;;;-1.86;100.00;101957.64;109414;1254;59910;-55
2024/01/31 05:25:48;;;;;;;;;;;;;;;-1.85;100.00;101957.92;109411;1254;74725;-56
2024/01/31 05:28:16;;;;;;;;;;;;;;;-1.83;100.00;101955.97;109416;1254;66226;-56
2024/01/31 05:30:44;;;;;;;;;;;;;;;-1.82;100.00;101957.30;109371;1253;73112;-57
2024/01/31 05:33:12;;;;;;;;;;;;;;;-1.78;100.00;101955.08;109337;1253;59651;-57
2024/01/31 05:35:40;;;;;;;;;;;;;;;-1.74;100.00;101955.44;109386;1253;59914;-56
2024/01/31 05:38:07;;;;;;;;;;;;;;;-1.70;100.00;101956.13;109398;1251;74469;-57
2024/01/31 05:40:37;;;;;;;;;;;;;;;-1.64;100.00;101956.41;109189;1254;67512;-58
2024/01/31 05:43:04;;;;;;;;;;;;;;;-1.61;100.00;101958.70;109149;1254;71510;-57
2024/01/31 05:45:33;;;;;;;;;;;;;;;-1.58;100.00;101957.37;109140;1253;59458;-56
2024/01/31 05:48:02;;;;;;;;;;;;;;;-1.54;100.00;101962.14;109182;1253;59914;-56
2024/01/31 05:50:29;;;;;;;;;;;;;;;-1.48;100.00;101964.95;109125;1251;73225;-62
2024/01/31 05:52:57;;;;;;;;;;;;;;;-1.42;100.00;101968.66;109475;1251;68071;-57
2024/01/31 05:55:24;;;;;;;;;;;;;;;-1.36;100.00;101963.27;109453;1256;71784;-57
2024/01/31 05:57:52;;;;;;;;;;;;;;;-1.28;100.00;101962.40;109489;1254;60143;-57
2024/01/31 06:00:19;;;;;;;;;;;;;;;-1.21;100.00;101968.43;109542;1251;58949;-54
2024/01/31 06:02:47;;;;;;;;;;;;;;;-1.14;100.00;101970.17;109437;1251;74756;-58
2024/01/31 06:05:19;;;;;;;;;;;;;;;-1.08;100.00;101968.54;109501;1251;66381;-57
2024/01/31 06:07:47;;;;;;;;;;;;;;;-1.01;100.00;101974.08;109470;1251;72729;-55
2024/01/31 06:10:14;;;;;;;;;;;;;;;-0.93;100.00;101979.52;109355;1254;60958;-57
2024/01/31 06:12:42;;;;;;;;;;;;;;;-0.84;100.00;101975.55;109384;1251;60490;-57
2024/01/31 06:15:09;;;;;;;;;;;;;;;-0.73;100.00;101980.67;109505;1254;74733;-58
2024/01/31 06:17:38;;;;;;;;;;;;;;;-0.62;100.00;101976.92;109493;1251;67241;-59
2024/01/31 06:20:06;;;;;;;;;;;;;;;-0.51;100.00;101975.59;109449;1254;73126;-59
2024/01/31 06:22:33;;;;;;;;;;;;;;;-0.41;100.00;101974.28;109297;1254;59477;-60
2024/01/31 06:25:01;;;;;;;;;;;;;;;-0.27;100.00;101970.08;109330;1254;60349;-57
2024/01/31 06:27:29;;;;;;;;;;;;;;;-0.17;100.00;101970.48;109492;1253;73447;-58
2024/01/31 06:29:56;;;;;;;;;;;;;;;-0.09;100.00;101965.48;109398;1254;66060;-58
2024/01/31 06:32:31;;;;;;;;;;;;;;;-0.01;100.00;101967.50;109345;1254;72690;-59
2024/01/31 06:34:59;;;;;;;;;;;;;;;0.09;100.00;101966.88;109328;1254;60087;-57
2024/01/31 06:37:27;;;;;;;;;;;;;;;0.16;100.00;101967.21;109376;1253;58976;-56
2024/01/31 06:39:55;;;;;;;;;;;;;;;0.24;100.00;101964.25;109373;1254;73434;-56
2024/01/31 06:42:22;;;;;;;;;;;;;;;0.34;100.00;101964.98;109288;1254;64650;-63
2024/01/31 06:44:50;;;;;;;;;;;;;;;0.44;100.00;101959.48;109399;1253;72765;-58
2024/01/31 06:47:17;;;;;;;;;;;;;;;0.53;100.00;101958.19;109329;1253;59845;-56
2024/01/31 06:49:45;;;;;;;;;;;;;;;0.60;100.00;101956.29;109405;1253;59871;-58
2024/01/31 06:52:12;;;;;;;;;;;;;;;0.66;100.00;101956.17;109360;1253;74714;-56
2024/01/31 06:54:40;;;;;;;;;;;;;;;0.73;100.00;101955.79;109315;1254;65755;-66
2024/01/31 06:57:07;;;;;;;;;;;;;;;0.77;100.00;101955.29;109346;1254;74230;-57
2024/01/31 06:59:35;;;;;;;;;;;;;;;0.83;100.00;101951.90;109329;1253;58954;-57
2024/01/31 07:02:03;;;;;;;;;;;;;;;0.91;100.00;101952.86;109300;1254;63156;-56
2024/01/31 07:04:30;;;;;;;;;;;;;;;1.03;100.00;101950.00;109461;1254;76558;-56
2024/01/31 07:06:58;;;;;;;;;;;;;;;1.17;100.00;101946.54;109265;1253;66177;-57
2024/01/31 07:09:26;;;;;;;;;;;;;;;1.31;100.00;101944.58;109268;1254;71475;-56
2024/01/31 07:11:53;;;;;;;;;;;;;;;1.46;100.00;101938.30;109280;1253;58910;-57
2024/01/31 07:14:21;;;;;;;;;;;;;;;1.59;100.00;101933.98;109233;1253;61908;-57
2024/01/31 07:16:49;;;;;;;;;;;;;;;1.77;100.00;101934.42;109236;1253;74707;-58
2024/01/31 07:19:16;;;;;;;;;;;;;;;1.98;100.00;101930.47;109296;1254;66937;-56
2024/01/31 07:21:44;;;;;;;;;;;;;;;2.22;100.00;101922.95;109350;1253;72770;-57
2024/01/31 07:24:12;;;;;;;;;;;;;;;2.46;100.00;101920.38;109286;1254;58918;-59
2024/01/31 07:26:54;;;;;;;;;;;;;;;2.84;100.00;101926.64;109290;1254;59870;-56
2024/01/31 07:29:22;;;;;;;;;;;;;;;3.44;100.00;101932.12;109244;1254;74702;-57
2024/01/31 07:31:49;;;;;;;;;;;;;;;4.16;100.00;101928.00;109292;1253;67077;-58
2024/01/31 07:34:17;;;;;;;;;;;;;;;4.90;100.00;101918.79;109360;1252;72846;-58
2024/01/31 07:36:45;;;;;;;;;;;;;;;5.54;100.00;101915.50;109308;1254;58946;-58
2024/01/31 07:39:12;;;;;;;;;;;;;;;6.20;100.00;101918.13;109335;1252;59042;-58
2024/01/31 07:41:40;;;;;;;;;;;;;;;6.80;100.00;101921.90;109350;1252;73394;-57
2024/01/31 07:44:08;;;;;;;;;;;;;;;7.28;100.00;101916.80;109352;1252;66098;-57
2024/01/31 07:46:36;;;;;;;;;;;;;;;7.69;100.00;101912.01;109309;1253;72810;-64
2024/01/31 07:49:04;;;;;;;;;;;;;;;8.03;100.00;101898.99;109333;1253;60098;-57
2024/01/31 07:51:32;;;;;;;;;;;;;;;8.17;100.00;101892.67;109356;1254;59223;-57
2024/01/31 07:54:00;;;;;;;;;;;;;;;8.13;100.00;101884.35;109246;1257;73440;-57
2024/01/31 07:56:27;;;;;;;;;;;;;;;7.93;100.00;101870.39;109351;1253;66934;-64
2024/01/31 07:58:55;;;;;;;;;;;;;;;7.74;100.00;101860.86;109335;1254;73516;-57
2024/01/31 08:01:22;;;;;;;;;;;;;;;7.68;100.00;101860.33;109365;1252;59616;-57
2024/01/31 08:03:50;;;;;;;;;;;;;;;7.76;100.00;101851.36;109350;1254;59159;-57
2024/01/31 08:06:17;;;;;;;;;;;;;;;7.81;100.00;101844.08;109327;1254;73782;-56
2024/01/31 08:08:45;;;;;;;;;;;;;;;7.85;100.00;101838.19;109262;1253;68901;-63
2024/01/31 08:11:13;;;;;;;;;;;;;;;7.86;100.00;101833.58;109336;1253;71275;-57
2024/01/31 08:13:40;;;;;;;;;;;;;;;7.94;100.00;101830.48;109290;1253;62473;-56
2024/01/31 08:16:10;;;;;;;;;;;;;;;8.09;100.00;101830.10;109387;1251;60370;-57
2024/01/31 08:18:38;;;;;;;;;;;;;;;8.31;100.00;101827.04;109335;1253;75891;-63
2024/01/31 08:21:06;;;;;;;;;;;;;;;8.55;100.00;101823.49;109364;1252;69374;-56
2024/01/31 08:23:34;;;;;;;;;;;;;;;8.81;100.00;101818.65;109441;1253;71532;-57
2024/01/31 08:26:03;;;;;;;;;;;;;;;9.06;100.00;101816.67;109443;1253;59013;-58
2024/01/31 08:28:31;;;;;;;;;;;;;;;9.30;100.00;101812.95;109528;1252;59291;-57
2024/01/31 08:30:58;;;;;;;;;;;;;;;9.44;100.00;101804.59;109430;1253;73434;-55
2024/01/31 08:33:27;;;;;;;;;;;;;;;9.44;100.00;101800.29;109504;1251;69447;-56
2024/01/31 08:35:55;;;;;;;;;;;;;;;9.47;100.00;101795.65;109451;1251;75232;-56
2024/01/31 08:38:23;;;;;;;;;;;;;;;9.53;100.00;101788.91;109493;1251;60265;-56
2024/01/31 08:40:51;;;;;;;;;;;;;;;9.62;100.00;101789.59;109319;1253;60981;-63
2024/01/31 08:43:19;;;;;;;;;;;;;;;9.67;100.00;101786.52;109235;1254;76138;-56
2024/01/31 08:45:47;;;;;;;;;;;;;;;9.75;100.00;101787.23;109329;1253;68876;-57
2024/01/31 08:48:14;;;;;;;;;;;;;;;9.88;100.00;101789.13;109258;1254;75952;-56
2024/01/31 08:50:42;;;;;;;;;;;;;;;10.07;100.00;101782.55;109246;1254;60971;-55
2024/01/31 08:53:10;;;;;;;;;;;;;;;10.25;100.00;101781.80;109192;1255;61410;-59
2024/01/31 08:55:37;;;;;;;;;;;;;;;10.35;100.00;101773.21;109308;1252;76645;-55
2024/01/31 08:58:05;;;;;;;;;;;;;;;10.23;100.00;101768.91;109311;1253;69958;-56
2024/01/31 09:00:33;;;;;;;;;;;;;;;10.06;100.00;101764.40;109301;1254;75338;-56
2024/01/31 09:03:00;;;;;;;;;;;;;;;9.94;100.00;101757.48;109287;1253;61173;-57
2024/01/31 09:05:28;;;;;;;;;;;;;;;9.85;100.00;101754.21;109311;1252;62433;-57
2024/01/31 09:07:59;;;;;;;;;;;;;;;9.78;100.00;101748.91;109347;1254;74770;-55
2024/01/31 09:10:27;;;;;;;;;;;;;;;9.89;100.00;101743.38;109345;1253;69141;-55
2024/01/31 09:12:54;;;;;;;;;;;;;;;10.01;100.00;101737.05;109302;1253;74915;-56
2024/01/31 09:15:22;;;;;;;;;;;;;;;10.11;100.00;101743.59;109267;1253;61325;-57
2024/01/31 09:17:51;;;;;;;;;;;;;;;10.22;100.00;101742.55;109381;1252;61324;-55
2024/01/31 09:20:20;;;;;;;;;;;;;;;10.37;100.00;101737.15;109372;1253;77733;-57
2024/01/31 09:22:47;;;;;;;;;;;;;;;10.42;100.00;101730.62;109373;1254;68278;-57
2024/01/31 09:25:15;;;;;;;;;;;;;;;10.31;100.00;101723.55;109263;1253;72791;-61
2024/01/31 09:27:43;;;;;;;;;;;;;;;10.14;100.00;101722.33;109268;1253;59600;-55
2024/01/31 09:30:11;;;;;;;;;;;;;;;9.93;100.00;101716.48;109310;1253;59902;-56
2024/01/31 09:32:39;;;;;;;;;;;;;;;9.78;100.00;101711.95;109288;1253;74716;-57
2024/01/31 09:35:06;;;;;;;;;;;;;;;9.69;100.00;101714.12;109276;1253;67261;-55
2024/01/31 09:37:34;;;;;;;;;;;;;;;9.68;100.00;101712.02;109245;1253;74156;-55
2024/01/31 09:40:02;;;;;;;;;;;;;;;9.71;100.00;101708.80;109203;1255;61567;-57
2024/01/31 09:42:30;;;;;;;;;;;;;;;9.76;100.00;101711.11;109285;1253;59807;-56
2024/01/31 09:44:58;;;;;;;;;;;;;;;9.64;100.00;101708.23;109135;1253;74843;-57
2024/01/31 09:47:28;;;;;;;;;;;;;;;9.54;100.00;101701.34;109259;1253;69338;-55
2024/01/31 09:49:56;;;;;;;;;;;;;;;9.49;100.00;101698.64;109215;1253;73751;-58
2024/01/31 09:52:27;;;;;;;;;;;;;;;9.51;100.00;101696.94;109257;1253;62012;-56
2024/01/31 09:54:58;;;;;;;;;;;;;;;9.36;100.00;101692.58;109278;1253;62565;-56
2024/01/31 09:57:27;;;;;;;;;;;;;;;9.05;100.00;101688.77;109253;1253;75746;-61
2024/01/31 09:59:55;;;;;;;;;;;;;;;8.68;100.00;101694.67;109333;1254;68833;-56
2024/01/31 10:02:22;;;;;;;;;;;;;;;8.37;100.00;101695.77;109300;1253;73724;-56
2024/01/31 10:04:50;;;;;;;;;;;;;;;8.31;100.00;101696.00;109269;1253;60568;-56
2024/01/31 10:07:21;;;;;;;;;;;;;;;8.29;100.00;101695.23;109261;1253;60913;-63
2024/01/31 10:09:50;;;;;;;;;;;;;;;8.29;100.00;101694.93;109269;1253;75513;-57
2024/01/31 10:12:20;;;;;;;;;;;;;;;8.35;100.00;101694.27;109285;1253;68622;-57
2024/01/31 10:14:48;;;;;;;;;;;;;;;8.44;100.00;101693.98;109277;1253;75243;-56
2024/01/31 10:17:16;;;;;;;;;;;;;;;8.51;100.00;101689.95;109233;1254;62572;-58
2024/01/31 10:19:44;;;;;;;;;;;;;;;8.50;100.00;101682.01;109301;1253;62245;-57
2024/01/31 10:22:12;;;;;;;;;;;;;;;8.42;100.00;101683.23;109284;1253;76687;-57
2024/01/31 10:24:40;;;;;;;;;;;;;;;8.28;100.00;101675.59;109291;1253;69247;-57
2024/01/31 10:27:08;;;;;;;;;;;;;;;8.18;100.00;101673.16;109235;1253;73734;-56
2024/01/31 10:29:37;;;;;;;;;;;;;;;8.13;100.00;101668.07;109099;1253;60141;-57
2024/01/31 10:32:05;;;;;;;;;;;;;;;8.13;100.00;101664.61;109267;1253;62176;-56
2024/01/31 10:34:33;;;;;;;;;;;;;;;8.22;100.00;101667.95;109301;1253;76590;-56
2024/01/31 10:37:21;;;;;;;;;;;;;;;8.36;100.00;101667.11;109279;1253;69098;-59
2024/01/31 10:39:52;;;;;;;;;;;;;;;8.48;100.00;101666.79;109272;1253;74206;-57
2024/01/31 10:42:20;;;;;;;;;;;;;;;8.56;100.00;101662.81;109271;1254;60308;-57
2024/01/31 10:44:48;;;;;;;;;;;;;;;8.62;100.00;101656.39;109296;1253;62268;-57
2024/01/31 10:47:16;;;;;;;;;;;;;;;8.70;100.00;101656.84;109244;1253;75625;-56
2024/01/31 10:49:44;;;;;;;;;;;;;;;8.86;100.00;101651.34;109280;1253;68248;-56
2024/01/31 10:52:15;;;;;;;;;;;;;;;8.99;100.00;101644.95;109289;1253;74807;-57
2024/01/31 10:54:52;;;;;;;;;;;;;;;9.05;100.00;101648.89;109283;1253;60319;-56
2024/01/31 10:57:20;;;;;;;;;;;;;;;9.07;100.00;101641.99;109264;1253;63254;-57
2024/01/31 10:59:50;;;;;;;;;;;;;;;9.10;100.00;101639.41;109297;1253;76139;-57
2024/01/31 11:02:18;;;;;;;;;;;;;;;9.13;100.00;101638.12;109284;1253;67824;-57
2024/01/31 11:04:46;;;;;;;;;;;;;;;9.25;100.00;101636.11;109269;1253;76064;-65
2024/01/31 11:07:15;;;;;;;;;;;;;;;9.48;100.00;101630.53;109283;1253;60761;-56
2024/01/31 11:09:43;;;;;;;;;;;;;;;9.79;100.00;101621.52;109150;1253;61012;-56
2024/01/31 11:12:11;;;;;;;;;;;;;;;10.09;100.00;101611.44;109284;1253;77348;-56
2024/01/31 11:14:39;;;;;;;;;;;;;;;10.32;100.00;101602.13;109303;1253;70685;-59
2024/01/31 11:17:07;;;;;;;;;;;;;;;10.41;100.00;101597.59;109199;1254;73843;-60
2024/01/31 11:19:39;;;;;;;;;;;;;;;10.37;100.00;101596.44;109255;1253;62249;-59
2024/01/31 11:22:07;;;;;;;;;;;;;;;10.31;100.00;101590.61;109127;1253;203795;-58
2024/01/31 11:24:38;;;;;;;;;;;;;;;10.33;100.00;101585.86;109324;1253;76706;-57
2024/01/31 11:27:06;;;;;;;;;;;;;;;10.38;100.00;101585.02;109234;1253;68259;-65
2024/01/31 11:29:34;;;;;;;;;;;;;;;10.41;100.00;101580.02;109251;1253;74063;-57
2024/01/31 11:32:01;;;;;;;;;;;;;;;10.39;100.00;101578.85;109271;1253;62130;-57
2024/01/31 11:34:29;;;;;;;;;;;;;;;10.38;100.00;101575.99;109298;1253;60732;-57
2024/01/31 11:36:57;;;;;;;;;;;;;;;10.32;100.00;101576.05;109282;1253;76610;-64
2024/01/31 11:39:25;;;;;;;;;;;;;;;10.24;100.00;101575.23;109262;1253;69705;-57
2024/01/31 11:41:54;;;;;;;;;;;;;;;10.18;100.00;101569.71;109277;1253;74835;-57
2024/01/31 11:44:21;;;;;;;;;;;;;;;10.09;100.00;101566.84;109244;1253;62866;-57
2024/01/31 11:46:50;;;;;;;;;;;;;;;9.93;100.00;101571.78;109098;1253;61739;-59
2024/01/31 11:49:18;;;;;;;;;;;;;;;9.77;100.00;101572.50;109268;1253;76753;-63
2024/01/31 11:51:46;;;;;;;;;;;;;;;9.57;100.00;101577.30;109267;1253;68074;-59
2024/01/31 11:54:13;;;;;;;;;;;;;;;9.34;100.00;101577.50;109260;1253;74788;-57
2024/01/31 11:56:41;;;;;;;;;;;;;;;9.14;100.00;101580.80;109244;1253;61445;-59
2024/01/31 11:59:10;;;;;;;;;;;;;;;9.01;100.00;101577.62;109286;1252;62145;-60
2024/01/31 12:01:37;;;;;;;;;;;;;;;8.94;100.00;101579.98;109265;1253;77392;-61
2024/01/31 12:04:06;;;;;;;;;;;;;;;8.95;100.00;101578.54;109301;1253;67834;-58
2024/01/31 12:06:34;;;;;;;;;;;;;;;9.02;100.00;101576.69;109257;1253;74778;-56
2024/01/31 12:09:02;;;;;;;;;;;;;;;9.08;100.00;101578.62;109270;1253;61968;-62
2024/01/31 12:11:31;;;;;;;;;;;;;;;9.06;100.00;101578.23;109282;1253;62053;-56
2024/01/31 12:13:59;;;;;;;;;;;;;;;9.07;100.00;101577.31;109153;1254;75905;-61
2024/01/31 12:16:28;;;;;;;;;;;;;;;9.08;100.00;101575.80;109283;1252;68792;-57
2024/01/31 12:18:59;;;;;;;;;;;;;;;9.03;100.00;101572.91;109295;1253;74860;-59
2024/01/31 12:21:27;;;;;;;;;;;;;;;8.99;100.00;101569.66;109258;1253;61152;-57
2024/01/31 12:23:55;;;;;;;;;;;;;;;8.99;100.00;101569.70;109243;1253;60716;-59